createdAt,value
2019-03-27T00:00:18.507Z,998.21
2019-03-27T00:01:18.439Z,998.28
2019-03-27T00:02:18.394Z,998.28
2019-03-27T00:03:18.302Z,998.32
2019-03-27T00:04:18.233Z,998.32
2019-03-27T00:05:18.161Z,998.34
2019-03-27T00:06:18.078Z,998.34
2019-03-27T00:07:18.006Z,998.34
2019-03-27T00:08:17.930Z,998.35
2019-03-27T00:09:17.894Z,998.37
2019-03-27T00:10:17.801Z,998.38
2019-03-27T00:11:17.731Z,998.37
2019-03-27T00:12:17.658Z,998.36
2019-03-27T00:13:17.587Z,998.33
2019-03-27T00:14:17.495Z,998.30
2019-03-27T00:15:17.431Z,998.34
2019-03-27T00:16:17.367Z,998.34
2019-03-27T00:17:17.294Z,998.31
2019-03-27T00:18:17.211Z,998.35
2019-03-27T00:19:17.140Z,998.27
2019-03-27T00:20:17.081Z,998.28
2019-03-27T00:21:16.999Z,998.31
2019-03-27T00:22:16.934Z,998.31
2019-03-27T00:23:16.864Z,998.26
2019-03-27T00:24:16.777Z,998.29
2019-03-27T00:25:16.707Z,998.29
2019-03-27T00:26:16.649Z,998.29
2019-03-27T00:27:20.287Z,998.20
2019-03-27T00:28:16.569Z,998.29
2019-03-27T00:29:16.432Z,998.29
2019-03-27T00:30:16.347Z,998.30
2019-03-27T00:31:16.275Z,998.28
2019-03-27T00:32:16.218Z,998.31
2019-03-27T00:33:16.139Z,998.27
2019-03-27T00:34:16.056Z,998.29
2019-03-27T00:35:15.987Z,998.28
2019-03-27T00:36:15.917Z,998.31
2019-03-27T00:37:15.841Z,998.31
2019-03-27T00:38:15.802Z,998.32
2019-03-27T00:39:15.714Z,998.34
2019-03-27T00:40:15.637Z,998.37
2019-03-27T00:41:15.575Z,998.36
2019-03-27T00:42:15.488Z,998.31
2019-03-27T00:43:15.419Z,998.36
2019-03-27T00:44:15.341Z,998.36
2019-03-27T00:45:25.698Z,998.37
2019-03-27T00:46:15.209Z,998.37
2019-03-27T00:47:15.135Z,998.35
2019-03-27T00:48:15.051Z,998.36
2019-03-27T00:49:14.988Z,998.32
2019-03-27T00:50:14.924Z,998.34
2019-03-27T00:51:14.856Z,998.31
2019-03-27T00:52:14.787Z,998.36
2019-03-27T00:53:14.712Z,998.34
2019-03-27T00:54:14.625Z,998.34
2019-03-27T00:55:14.550Z,998.32
2019-03-27T00:56:14.501Z,998.34
2019-03-27T00:57:14.426Z,998.30
2019-03-27T00:58:14.341Z,998.31
2019-03-27T00:59:14.270Z,998.30
2019-03-27T01:00:14.194Z,998.23
2019-03-27T01:01:14.131Z,998.24
2019-03-27T01:02:14.063Z,998.21
2019-03-27T01:03:13.987Z,998.19
2019-03-27T01:04:13.906Z,998.15
2019-03-27T01:05:13.837Z,998.16
2019-03-27T01:06:13.775Z,998.14
2019-03-27T01:07:13.708Z,998.20
2019-03-27T01:08:13.629Z,998.12
2019-03-27T01:09:13.563Z,998.14
2019-03-27T01:10:13.474Z,998.16
2019-03-27T01:11:13.413Z,998.17
2019-03-27T01:12:13.334Z,998.22
2019-03-27T01:13:13.258Z,998.22
2019-03-27T01:14:13.204Z,998.25
2019-03-27T01:15:13.145Z,998.27
2019-03-27T01:16:13.057Z,998.28
2019-03-27T01:17:13.010Z,998.32
2019-03-27T01:18:12.924Z,998.33
2019-03-27T01:19:12.832Z,998.32
2019-03-27T01:20:12.770Z,998.37
2019-03-27T01:21:12.784Z,998.32
2019-03-27T01:22:12.615Z,998.37
2019-03-27T01:23:12.544Z,998.39
2019-03-27T01:24:12.467Z,998.34
2019-03-27T01:25:12.401Z,998.34
2019-03-27T01:26:12.340Z,998.39
2019-03-27T01:27:12.269Z,998.35
2019-03-27T01:28:12.182Z,998.35
2019-03-27T01:29:12.115Z,998.31
2019-03-27T01:30:12.050Z,998.31
2019-03-27T01:31:11.987Z,998.27
2019-03-27T01:32:11.909Z,998.28
2019-03-27T01:33:11.837Z,998.25
2019-03-27T01:34:11.753Z,998.25
2019-03-27T01:35:11.676Z,998.33
2019-03-27T01:36:11.622Z,998.35
2019-03-27T01:37:11.545Z,998.36
2019-03-27T01:38:11.462Z,998.36
2019-03-27T01:39:11.386Z,998.41
2019-03-27T01:40:11.317Z,998.39
2019-03-27T01:41:11.246Z,998.43
2019-03-27T01:42:11.187Z,998.46
2019-03-27T01:43:11.122Z,998.45
2019-03-27T01:44:11.041Z,998.48
2019-03-27T01:45:10.971Z,998.44
2019-03-27T01:46:10.879Z,998.46
2019-03-27T01:47:10.808Z,998.49
2019-03-27T01:48:10.740Z,998.48
2019-03-27T01:49:10.670Z,998.51
2019-03-27T01:50:10.601Z,998.49
2019-03-27T01:51:10.534Z,998.50
2019-03-27T01:52:10.450Z,998.51
2019-03-27T01:53:10.378Z,998.50
2019-03-27T01:54:10.316Z,998.49
2019-03-27T01:55:10.241Z,998.46
2019-03-27T01:56:10.174Z,998.47
2019-03-27T01:57:10.104Z,998.50
2019-03-27T01:58:10.016Z,998.47
2019-03-27T01:59:09.941Z,998.43
2019-03-27T02:00:09.866Z,998.47
2019-03-27T02:01:09.798Z,998.46
2019-03-27T02:02:09.733Z,998.50
2019-03-27T02:03:09.664Z,998.49
2019-03-27T02:04:09.591Z,998.50
2019-03-27T02:05:09.521Z,998.50
2019-03-27T02:06:09.436Z,998.49
2019-03-27T02:07:09.358Z,998.46
2019-03-27T02:08:09.299Z,998.48
2019-03-27T02:09:09.228Z,998.48
2019-03-27T02:10:09.148Z,998.53
2019-03-27T02:11:09.071Z,998.52
2019-03-27T02:12:09.002Z,998.49
2019-03-27T02:13:08.944Z,998.51
2019-03-27T02:14:08.869Z,998.46
2019-03-27T02:15:08.794Z,998.45
2019-03-27T02:16:08.726Z,998.43
2019-03-27T02:17:08.647Z,998.43
2019-03-27T02:18:08.562Z,998.39
2019-03-27T02:19:08.489Z,998.39
2019-03-27T02:20:08.417Z,998.37
2019-03-27T02:21:08.348Z,998.35
2019-03-27T02:22:08.281Z,998.37
2019-03-27T02:23:08.217Z,998.32
2019-03-27T02:24:08.137Z,998.36
2019-03-27T02:25:08.062Z,998.35
2019-03-27T02:26:07.996Z,998.39
2019-03-27T02:27:07.921Z,998.39
2019-03-27T02:28:07.846Z,998.43
2019-03-27T02:29:07.781Z,998.42
2019-03-27T02:30:07.692Z,998.43
2019-03-27T02:31:07.619Z,998.41
2019-03-27T02:32:07.575Z,998.44
2019-03-27T02:33:07.522Z,998.45
2019-03-27T02:34:07.405Z,998.48
2019-03-27T02:35:07.354Z,998.42
2019-03-27T02:36:07.261Z,998.41
2019-03-27T02:37:07.202Z,998.44
2019-03-27T02:38:07.131Z,998.43
2019-03-27T02:39:07.060Z,998.43
2019-03-27T02:40:06.984Z,998.44
2019-03-27T02:41:06.901Z,998.43
2019-03-27T02:42:06.843Z,998.43
2019-03-27T02:43:06.766Z,998.42
2019-03-27T02:44:06.697Z,998.47
2019-03-27T02:45:06.627Z,998.48
2019-03-27T02:46:23.366Z,998.49
2019-03-27T02:47:06.484Z,998.50
2019-03-27T02:48:06.392Z,998.49
2019-03-27T02:49:06.321Z,998.53
2019-03-27T02:50:06.263Z,998.47
2019-03-27T02:51:06.189Z,998.49
2019-03-27T02:52:06.112Z,998.51
2019-03-27T02:53:06.046Z,998.41
2019-03-27T02:54:05.960Z,998.43
2019-03-27T02:55:05.903Z,998.43
2019-03-27T02:56:05.826Z,998.42
2019-03-27T02:57:05.756Z,998.44
2019-03-27T02:58:05.677Z,998.46
2019-03-27T02:59:05.609Z,998.45
2019-03-27T03:00:05.526Z,998.49
2019-03-27T03:01:05.453Z,998.45
2019-03-27T03:02:05.388Z,998.47
2019-03-27T03:03:05.318Z,998.44
2019-03-27T03:04:05.247Z,998.44
2019-03-27T03:05:05.176Z,998.45
2019-03-27T03:06:05.089Z,998.41
2019-03-27T03:07:05.013Z,998.42
2019-03-27T03:08:04.947Z,998.42
2019-03-27T03:09:04.870Z,998.39
2019-03-27T03:10:04.855Z,998.36
2019-03-27T03:11:04.774Z,998.32
2019-03-27T03:12:04.691Z,998.37
2019-03-27T03:13:04.577Z,998.34
2019-03-27T03:14:04.525Z,998.33
2019-03-27T03:15:04.451Z,998.34
2019-03-27T03:16:04.380Z,998.35
2019-03-27T03:17:04.299Z,998.29
2019-03-27T03:18:04.225Z,998.33
2019-03-27T03:19:04.147Z,998.33
2019-03-27T03:20:04.069Z,998.35
2019-03-27T03:21:04.129Z,998.38
2019-03-27T03:22:03.933Z,998.33
2019-03-27T03:23:03.883Z,998.40
2019-03-27T03:24:03.787Z,998.37
2019-03-27T03:25:03.724Z,998.35
2019-03-27T03:26:03.632Z,998.36
2019-03-27T03:27:03.564Z,998.35
2019-03-27T03:28:03.496Z,998.32
2019-03-27T03:29:03.428Z,998.36
2019-03-27T03:30:03.341Z,998.40
2019-03-27T03:31:03.265Z,998.35
2019-03-27T03:32:03.350Z,998.33
2019-03-27T03:33:03.125Z,998.36
2019-03-27T03:34:03.074Z,998.40
2019-03-27T03:35:03.023Z,998.37
2019-03-27T03:36:02.905Z,998.41
2019-03-27T03:37:02.863Z,998.41
2019-03-27T03:38:02.772Z,998.49
2019-03-27T03:39:02.702Z,998.50
2019-03-27T03:40:02.628Z,998.56
2019-03-27T03:41:02.554Z,998.52
2019-03-27T03:42:02.467Z,998.51
2019-03-27T03:43:02.392Z,998.51
2019-03-27T03:44:02.330Z,998.52
2019-03-27T03:45:02.277Z,998.54
2019-03-27T03:46:02.170Z,998.52
2019-03-27T03:47:02.109Z,998.55
2019-03-27T03:48:02.073Z,998.56
2019-03-27T03:49:01.972Z,998.59
2019-03-27T03:50:01.895Z,998.63
2019-03-27T03:51:01.826Z,998.59
2019-03-27T03:52:01.752Z,998.60
2019-03-27T03:53:01.678Z,998.57
2019-03-27T03:54:01.592Z,998.63
2019-03-27T03:55:01.522Z,998.60
2019-03-27T03:56:01.445Z,998.61
2019-03-27T03:57:01.374Z,998.63
2019-03-27T03:58:01.313Z,998.59
2019-03-27T03:59:01.254Z,998.57
2019-03-27T04:00:01.153Z,998.60
2019-03-27T04:01:01.076Z,998.60
2019-03-27T04:02:01.018Z,998.62
2019-03-27T04:03:00.943Z,998.62
2019-03-27T04:04:00.874Z,998.65
2019-03-27T04:05:00.801Z,998.61
2019-03-27T04:06:00.716Z,998.63
2019-03-27T04:07:00.642Z,998.63
2019-03-27T04:08:00.571Z,998.62
2019-03-27T04:09:00.502Z,998.65
2019-03-27T04:10:00.635Z,998.64
2019-03-27T04:11:00.366Z,998.68
2019-03-27T04:12:00.297Z,998.68
2019-03-27T04:13:00.218Z,998.68
2019-03-27T04:14:00.134Z,998.67
2019-03-27T04:15:00.135Z,998.71
2019-03-27T04:15:59.994Z,998.67
2019-03-27T04:17:16.087Z,998.71
2019-03-27T04:17:59.845Z,998.72
2019-03-27T04:18:59.763Z,998.73
2019-03-27T04:19:59.695Z,998.69
2019-03-27T04:20:59.621Z,998.70
2019-03-27T04:21:59.572Z,998.71
2019-03-27T04:22:59.484Z,998.70
2019-03-27T04:23:59.415Z,998.71
2019-03-27T04:24:59.338Z,998.72
2019-03-27T04:26:09.613Z,998.75
2019-03-27T04:26:59.186Z,998.73
2019-03-27T04:27:59.112Z,998.76
2019-03-27T04:28:59.036Z,998.76
2019-03-27T04:29:58.977Z,998.79
2019-03-27T04:30:58.908Z,998.79
2019-03-27T04:31:58.820Z,998.81
2019-03-27T04:32:58.740Z,998.81
2019-03-27T04:33:58.678Z,998.83
2019-03-27T04:34:58.621Z,998.84
2019-03-27T04:35:58.540Z,998.89
2019-03-27T04:36:58.468Z,998.89
2019-03-27T04:37:58.379Z,998.96
2019-03-27T04:38:58.307Z,998.90
2019-03-27T04:39:58.246Z,998.90
2019-03-27T04:40:58.170Z,998.92
2019-03-27T04:41:58.080Z,998.91
2019-03-27T04:42:58.005Z,998.89
2019-03-27T04:43:57.939Z,998.90
2019-03-27T04:44:57.863Z,998.89
2019-03-27T04:45:57.799Z,998.85
2019-03-27T04:46:57.731Z,998.86
2019-03-27T04:47:57.652Z,998.86
2019-03-27T04:48:57.576Z,998.89
2019-03-27T04:49:57.506Z,998.87
2019-03-27T04:50:57.437Z,998.87
2019-03-27T04:51:57.366Z,998.93
2019-03-27T04:52:57.289Z,998.93
2019-03-27T04:53:57.202Z,998.92
2019-03-27T04:54:57.130Z,998.92
2019-03-27T04:55:57.056Z,998.88
2019-03-27T04:56:56.993Z,998.87
2019-03-27T04:57:56.926Z,998.84
2019-03-27T04:58:56.851Z,998.90
2019-03-27T04:59:56.781Z,998.91
2019-03-27T05:00:56.703Z,998.93
2019-03-27T05:01:56.618Z,998.97
2019-03-27T05:02:56.543Z,998.97
2019-03-27T05:03:56.484Z,998.95
2019-03-27T05:04:56.407Z,998.95
2019-03-27T05:05:56.324Z,998.96
2019-03-27T05:06:56.250Z,998.99
2019-03-27T05:07:56.173Z,999.00
2019-03-27T05:08:56.104Z,999.02
2019-03-27T05:09:56.043Z,999.02
2019-03-27T05:10:55.972Z,999.04
2019-03-27T05:11:55.881Z,999.05
2019-03-27T05:12:55.809Z,999.11
2019-03-27T05:13:55.744Z,999.08
2019-03-27T05:14:55.674Z,999.10
2019-03-27T05:15:55.599Z,999.09
2019-03-27T05:16:55.588Z,999.14
2019-03-27T05:17:55.443Z,999.17
2019-03-27T05:18:55.368Z,999.17
2019-03-27T05:19:55.307Z,999.20
2019-03-27T05:20:55.233Z,999.16
2019-03-27T05:21:55.149Z,999.16
2019-03-27T05:22:55.074Z,999.17
2019-03-27T05:23:55.002Z,999.16
2019-03-27T05:24:54.933Z,999.15
2019-03-27T05:25:54.875Z,999.16
2019-03-27T05:26:54.792Z,999.15
2019-03-27T05:27:54.742Z,999.17
2019-03-27T05:28:54.647Z,999.21
2019-03-27T05:29:54.561Z,999.18
2019-03-27T05:30:54.484Z,999.16
2019-03-27T05:31:54.412Z,999.15
2019-03-27T05:32:54.338Z,999.13
2019-03-27T05:33:54.277Z,999.13
2019-03-27T05:34:54.204Z,999.12
2019-03-27T05:35:54.116Z,999.13
2019-03-27T05:36:54.042Z,999.12
2019-03-27T05:37:53.983Z,999.14
2019-03-27T05:38:53.912Z,999.15
2019-03-27T05:39:53.842Z,999.17
2019-03-27T05:40:53.762Z,999.20
2019-03-27T05:41:53.677Z,999.17
2019-03-27T05:43:00.548Z,999.18
2019-03-27T05:43:53.547Z,999.21
2019-03-27T05:44:53.467Z,999.18
2019-03-27T05:45:53.490Z,999.19
2019-03-27T05:46:53.306Z,999.18
2019-03-27T05:47:59.622Z,999.16
2019-03-27T05:48:53.163Z,999.18
2019-03-27T05:49:53.101Z,999.15
2019-03-27T05:50:53.027Z,999.15
2019-03-27T05:51:52.938Z,999.16
2019-03-27T05:52:52.872Z,999.16
2019-03-27T05:53:52.805Z,999.14
2019-03-27T05:54:52.727Z,999.14
2019-03-27T05:55:52.654Z,999.12
2019-03-27T05:56:52.589Z,999.08
2019-03-27T05:57:52.547Z,999.09
2019-03-27T05:58:52.431Z,999.07
2019-03-27T05:59:52.351Z,999.14
2019-03-27T06:00:52.278Z,999.14
2019-03-27T06:01:52.216Z,999.10
2019-03-27T06:02:52.143Z,999.15
2019-03-27T06:03:52.073Z,999.13
2019-03-27T06:04:51.991Z,999.19
2019-03-27T06:05:51.910Z,999.25
2019-03-27T06:06:51.839Z,999.23
2019-03-27T06:07:51.778Z,999.31
2019-03-27T06:08:51.695Z,999.29
2019-03-27T06:09:51.616Z,999.29
2019-03-27T06:10:51.538Z,999.34
2019-03-27T06:11:51.465Z,999.38
2019-03-27T06:12:51.394Z,999.44
2019-03-27T06:13:51.338Z,999.46
2019-03-27T06:14:51.252Z,999.43
2019-03-27T06:15:51.184Z,999.43
2019-03-27T06:16:51.112Z,999.48
2019-03-27T06:17:51.023Z,999.46
2019-03-27T06:18:50.947Z,999.43
2019-03-27T06:19:50.868Z,999.44
2019-03-27T06:20:50.797Z,999.41
2019-03-27T06:21:50.734Z,999.44
2019-03-27T06:22:50.663Z,999.43
2019-03-27T06:23:50.579Z,999.48
2019-03-27T06:24:50.502Z,999.50
2019-03-27T06:25:50.435Z,999.54
2019-03-27T06:26:50.364Z,999.60
2019-03-27T06:27:50.297Z,999.60
2019-03-27T06:28:50.215Z,999.66
2019-03-27T06:29:50.127Z,999.64
2019-03-27T06:30:50.055Z,999.65
2019-03-27T06:31:49.990Z,999.66
2019-03-27T06:32:49.908Z,999.68
2019-03-27T06:33:49.845Z,999.74
2019-03-27T06:34:49.777Z,999.75
2019-03-27T06:35:49.702Z,999.80
2019-03-27T06:36:49.630Z,999.78
2019-03-27T06:37:49.544Z,999.78
2019-03-27T06:38:49.469Z,999.77
2019-03-27T06:39:49.407Z,999.76
2019-03-27T06:40:49.337Z,999.74
2019-03-27T06:41:49.243Z,999.75
2019-03-27T06:42:49.175Z,999.69
2019-03-27T06:43:49.102Z,999.71
2019-03-27T06:44:49.029Z,999.72
2019-03-27T06:45:48.960Z,999.75
2019-03-27T06:46:48.889Z,999.67
2019-03-27T06:47:48.810Z,999.71
2019-03-27T06:48:48.735Z,999.70
2019-03-27T06:49:48.670Z,999.71
2019-03-27T06:50:48.600Z,999.77
2019-03-27T06:51:48.526Z,999.77
2019-03-27T06:52:48.452Z,999.80
2019-03-27T06:53:48.365Z,999.86
2019-03-27T06:54:48.293Z,999.83
2019-03-27T06:55:48.235Z,999.85
2019-03-27T06:56:48.162Z,999.83
2019-03-27T06:57:48.071Z,999.90
2019-03-27T06:58:54.528Z,999.92
2019-03-27T06:59:47.925Z,999.93
2019-03-27T07:00:47.856Z,999.89
2019-03-27T07:01:47.795Z,999.97
2019-03-27T07:02:47.723Z,999.99
2019-03-27T07:03:47.652Z,1000.00
2019-03-27T07:04:47.619Z,1000.00
2019-03-27T07:05:47.490Z,1000.02
2019-03-27T07:06:47.435Z,999.97
2019-03-27T07:07:47.349Z,999.99
2019-03-27T07:08:47.277Z,999.97
2019-03-27T07:09:47.216Z,999.94
2019-03-27T07:10:47.143Z,999.94
2019-03-27T07:11:47.053Z,999.96
2019-03-27T07:12:46.987Z,999.95
2019-03-27T07:13:46.937Z,1000.00
2019-03-27T07:14:46.853Z,1000.01
2019-03-27T07:15:46.780Z,999.98
2019-03-27T07:16:46.709Z,1000.01
2019-03-27T07:17:46.629Z,1000.02
2019-03-27T07:18:46.553Z,1000.03
2019-03-27T07:19:46.480Z,1000.08
2019-03-27T07:20:46.409Z,1000.03
2019-03-27T07:21:46.350Z,999.99
2019-03-27T07:22:46.274Z,1000.00
2019-03-27T07:23:46.204Z,1000.00
2019-03-27T07:24:46.145Z,999.99
2019-03-27T07:25:46.050Z,1000.01
2019-03-27T07:26:45.985Z,1000.00
2019-03-27T07:27:45.917Z,1000.01
2019-03-27T07:28:45.849Z,1000.06
2019-03-27T07:29:45.763Z,1000.05
2019-03-27T07:30:45.691Z,1000.00
2019-03-27T07:31:45.659Z,1000.00
2019-03-27T07:32:45.550Z,1000.04
2019-03-27T07:33:45.487Z,999.99
2019-03-27T07:34:45.420Z,999.97
2019-03-27T07:35:45.351Z,1000.02
2019-03-27T07:36:45.271Z,1000.02
2019-03-27T07:37:45.189Z,1000.03
2019-03-27T07:38:45.118Z,1000.05
2019-03-27T07:39:45.047Z,1000.03
2019-03-27T07:40:44.977Z,1000.01
2019-03-27T07:41:44.919Z,1000.01
2019-03-27T07:42:44.854Z,1000.02
2019-03-27T07:43:44.765Z,1000.03
2019-03-27T07:44:44.707Z,1000.00
2019-03-27T07:45:44.630Z,1000.03
2019-03-27T07:46:44.563Z,1000.02
2019-03-27T07:47:44.494Z,1000.02
2019-03-27T07:48:53.854Z,1000.03
2019-03-27T07:49:44.341Z,1000.02
2019-03-27T07:50:44.269Z,999.97
2019-03-27T07:51:44.204Z,1000.01
2019-03-27T07:52:44.137Z,1000.00
2019-03-27T07:53:44.053Z,999.99
2019-03-27T07:54:43.983Z,999.97
2019-03-27T07:55:43.913Z,999.99
2019-03-27T07:56:43.845Z,999.99
2019-03-27T07:57:43.786Z,999.99
2019-03-27T07:58:43.714Z,999.98
2019-03-27T07:59:43.634Z,999.99
2019-03-27T08:00:43.562Z,999.99
2019-03-27T08:01:43.499Z,999.96
2019-03-27T08:02:43.440Z,999.94
2019-03-27T08:03:43.356Z,999.98
2019-03-27T08:04:43.299Z,999.96
2019-03-27T08:05:43.218Z,999.98
2019-03-27T08:06:43.135Z,999.96
2019-03-27T08:07:43.067Z,999.96
2019-03-27T08:08:43.007Z,999.97
2019-03-27T08:09:42.946Z,999.96
2019-03-27T08:10:42.874Z,999.97
2019-03-27T08:11:42.797Z,999.95
2019-03-27T08:12:42.732Z,999.96
2019-03-27T08:13:42.653Z,999.99
2019-03-27T08:14:42.577Z,999.96
2019-03-27T08:15:42.523Z,999.97
2019-03-27T08:16:42.449Z,999.98
2019-03-27T08:17:42.370Z,999.98
2019-03-27T08:18:42.303Z,999.96
2019-03-27T08:19:42.233Z,1000.01
2019-03-27T08:20:42.161Z,999.97
2019-03-27T08:21:42.100Z,1000.01
2019-03-27T08:22:42.032Z,999.97
2019-03-27T08:23:41.965Z,1000.00
2019-03-27T08:24:41.896Z,999.97
2019-03-27T08:25:41.808Z,1000.04
2019-03-27T08:26:41.745Z,999.97
2019-03-27T08:27:41.671Z,999.99
2019-03-27T08:28:41.601Z,999.99
2019-03-27T08:29:41.545Z,999.99
2019-03-27T08:30:41.476Z,999.98
2019-03-27T08:31:41.397Z,1000.01
2019-03-27T08:32:41.325Z,1000.03
2019-03-27T08:33:41.268Z,999.98
2019-03-27T08:34:41.200Z,999.97
2019-03-27T08:35:41.159Z,999.99
2019-03-27T08:36:41.055Z,999.97
2019-03-27T08:37:40.978Z,999.95
2019-03-27T08:38:40.909Z,999.96
2019-03-27T08:39:40.842Z,999.95
2019-03-27T08:40:40.771Z,999.96
2019-03-27T08:41:40.717Z,1000.01
2019-03-27T08:42:40.645Z,999.99
2019-03-27T08:43:40.571Z,999.98
2019-03-27T08:44:40.510Z,999.99
2019-03-27T08:45:40.421Z,999.94
2019-03-27T08:46:40.355Z,999.99
2019-03-27T08:47:40.293Z,1000.01
2019-03-27T08:48:40.229Z,1000.01
2019-03-27T08:49:40.149Z,1000.03
2019-03-27T08:50:40.078Z,1000.04
2019-03-27T08:51:40.009Z,1000.02
2019-03-27T08:52:39.941Z,1000.02
2019-03-27T08:53:39.883Z,1000.02
2019-03-27T08:54:39.816Z,1000.01
2019-03-27T08:55:39.729Z,1000.04
2019-03-27T08:56:39.663Z,1000.05
2019-03-27T08:57:39.605Z,1000.03
2019-03-27T08:58:39.563Z,1000.04
2019-03-27T08:59:39.467Z,1000.04
2019-03-27T09:00:39.400Z,1000.06
2019-03-27T09:01:39.317Z,999.99
2019-03-27T09:02:39.249Z,999.96
2019-03-27T09:03:39.196Z,999.99
2019-03-27T09:04:39.123Z,999.96
2019-03-27T09:05:39.041Z,1000.03
2019-03-27T09:06:38.982Z,1000.03
2019-03-27T09:07:38.903Z,1000.10
2019-03-27T09:08:38.832Z,1000.03
2019-03-27T09:09:38.779Z,999.98
2019-03-27T09:10:38.709Z,1000.03
2019-03-27T09:11:38.644Z,1000.02
2019-03-27T09:12:38.576Z,1000.02
2019-03-27T09:13:38.495Z,1000.00
2019-03-27T09:14:38.441Z,1000.01
2019-03-27T09:15:38.354Z,1000.06
2019-03-27T09:16:38.291Z,1000.12
2019-03-27T09:17:38.230Z,1000.04
2019-03-27T09:18:38.160Z,1000.06
2019-03-27T09:19:38.079Z,1000.04
2019-03-27T09:20:38.013Z,1000.01
2019-03-27T09:21:37.956Z,1000.00
2019-03-27T09:22:37.885Z,1000.02
2019-03-27T09:23:37.821Z,999.99
2019-03-27T09:24:37.748Z,999.95
2019-03-27T09:25:37.671Z,999.95
2019-03-27T09:26:37.603Z,999.97
2019-03-27T09:27:37.555Z,999.91
2019-03-27T09:28:37.477Z,999.92
2019-03-27T09:29:37.401Z,999.87
2019-03-27T09:30:37.326Z,999.92
2019-03-27T09:31:44.584Z,999.86
2019-03-27T09:32:37.201Z,999.85
2019-03-27T09:33:37.148Z,999.83
2019-03-27T09:34:37.056Z,999.90
2019-03-27T09:35:36.985Z,999.91
2019-03-27T09:36:36.933Z,999.91
2019-03-27T09:37:36.865Z,999.94
2019-03-27T09:38:36.798Z,999.92
2019-03-27T09:39:36.732Z,999.92
2019-03-27T09:40:36.647Z,999.97
2019-03-27T09:41:36.584Z,999.96
2019-03-27T09:42:36.507Z,999.95
2019-03-27T09:43:36.445Z,999.93
2019-03-27T09:44:36.387Z,999.92
2019-03-27T09:45:36.316Z,999.90
2019-03-27T09:46:36.255Z,999.91
2019-03-27T09:47:36.180Z,999.91
2019-03-27T09:48:36.103Z,999.91
2019-03-27T09:49:49.056Z,999.90
2019-03-27T09:50:36.001Z,999.95
2019-03-27T09:51:35.911Z,999.88
2019-03-27T09:52:35.828Z,999.90
2019-03-27T09:53:35.762Z,999.95
2019-03-27T09:54:35.691Z,999.93
2019-03-27T09:55:35.629Z,999.94
2019-03-27T09:56:35.568Z,999.92
2019-03-27T09:57:35.499Z,999.94
2019-03-27T09:58:35.417Z,999.90
2019-03-27T09:59:35.352Z,999.96
2019-03-27T10:00:35.293Z,999.96
2019-03-27T10:01:35.219Z,999.95
2019-03-27T10:02:35.166Z,999.93
2019-03-27T10:03:35.097Z,999.94
2019-03-27T10:04:35.013Z,999.93
2019-03-27T10:05:34.947Z,999.97
2019-03-27T10:06:34.892Z,999.98
2019-03-27T10:07:34.820Z,999.97
2019-03-27T10:08:34.741Z,999.96
2019-03-27T10:09:34.672Z,999.91
2019-03-27T10:10:34.602Z,999.92
2019-03-27T10:11:34.540Z,999.93
2019-03-27T10:12:34.479Z,999.91
2019-03-27T10:13:34.411Z,999.93
2019-03-27T10:14:34.344Z,999.90
2019-03-27T10:15:34.281Z,999.89
2019-03-27T10:16:34.201Z,999.92
2019-03-27T10:17:34.127Z,999.90
2019-03-27T10:18:34.059Z,999.88
2019-03-27T10:19:33.993Z,999.90
2019-03-27T10:20:33.938Z,999.86
2019-03-27T10:21:33.869Z,999.86
2019-03-27T10:22:33.792Z,999.87
2019-03-27T10:23:33.720Z,999.83
2019-03-27T10:24:33.740Z,999.77
2019-03-27T10:25:33.593Z,999.77
2019-03-27T10:26:33.530Z,999.77
2019-03-27T10:27:33.458Z,999.75
2019-03-27T10:28:33.378Z,999.79
2019-03-27T10:29:33.310Z,999.80
2019-03-27T10:30:33.244Z,999.77
2019-03-27T10:31:33.177Z,999.78
2019-03-27T10:32:33.123Z,999.80
2019-03-27T10:33:33.064Z,999.80
2019-03-27T10:34:32.985Z,999.75
2019-03-27T10:35:32.916Z,999.72
2019-03-27T10:36:32.851Z,999.70
2019-03-27T10:37:32.763Z,999.67
2019-03-27T10:38:32.710Z,999.68
2019-03-27T10:39:32.645Z,999.65
2019-03-27T10:40:32.578Z,999.70
2019-03-27T10:41:32.494Z,999.67
2019-03-27T10:42:32.431Z,999.65
2019-03-27T10:43:32.372Z,999.65
2019-03-27T10:44:32.309Z,999.66
2019-03-27T10:45:32.237Z,999.64
2019-03-27T10:46:32.167Z,999.64
2019-03-27T10:47:32.108Z,999.64
2019-03-27T10:48:32.035Z,999.56
2019-03-27T10:49:34.438Z,999.57
2019-03-27T10:50:31.885Z,999.55
2019-03-27T10:51:31.820Z,999.54
2019-03-27T10:52:31.765Z,999.53
2019-03-27T10:53:31.706Z,999.51
2019-03-27T10:54:31.614Z,999.53
2019-03-27T10:55:34.344Z,999.49
2019-03-27T10:56:31.495Z,999.51
2019-03-27T10:57:31.425Z,999.46
2019-03-27T10:58:31.388Z,999.44
2019-03-27T10:59:31.292Z,999.42
2019-03-27T11:00:31.209Z,999.42
2019-03-27T11:01:31.144Z,999.44
2019-03-27T11:02:31.090Z,999.38
2019-03-27T11:03:31.021Z,999.40
2019-03-27T11:04:30.942Z,999.38
2019-03-27T11:05:30.870Z,999.33
2019-03-27T11:06:30.846Z,999.35
2019-03-27T11:07:30.738Z,999.40
2019-03-27T11:08:30.681Z,999.40
2019-03-27T11:09:30.616Z,999.41
2019-03-27T11:10:30.533Z,999.40
2019-03-27T11:11:30.566Z,999.40
2019-03-27T11:12:30.414Z,999.38
2019-03-27T11:13:30.348Z,999.38
2019-03-27T11:14:37.634Z,999.35
2019-03-27T11:15:30.207Z,999.38
2019-03-27T11:16:30.123Z,999.36
2019-03-27T11:17:30.063Z,999.34
2019-03-27T11:18:29.988Z,999.34
2019-03-27T11:19:29.940Z,999.31
2019-03-27T11:20:31.213Z,999.29
2019-03-27T11:21:29.800Z,999.27
2019-03-27T11:22:29.755Z,999.29
2019-03-27T11:23:29.662Z,999.25
2019-03-27T11:24:29.581Z,999.21
2019-03-27T11:25:32.854Z,999.21
2019-03-27T11:26:29.478Z,999.18
2019-03-27T11:27:29.408Z,999.22
2019-03-27T11:28:29.316Z,999.19
2019-03-27T11:29:29.246Z,999.16
2019-03-27T11:30:29.178Z,999.16
2019-03-27T11:31:29.106Z,999.14
2019-03-27T11:32:29.055Z,999.10
2019-03-27T11:33:29.145Z,999.10
2019-03-27T11:34:28.920Z,999.06
2019-03-27T11:35:28.854Z,999.10
2019-03-27T11:36:28.771Z,999.09
2019-03-27T11:37:28.706Z,999.09
2019-03-27T11:38:28.635Z,999.03
2019-03-27T11:39:28.570Z,998.99
2019-03-27T11:40:28.514Z,999.05
2019-03-27T11:41:28.447Z,999.00
2019-03-27T11:42:28.368Z,998.98
2019-03-27T11:43:28.295Z,998.99
2019-03-27T11:44:28.246Z,998.97
2019-03-27T11:45:28.177Z,998.95
2019-03-27T11:46:28.110Z,998.91
2019-03-27T11:47:28.039Z,998.93
2019-03-27T11:48:27.958Z,998.92
2019-03-27T11:49:27.888Z,998.87
2019-03-27T11:50:27.818Z,998.96
2019-03-27T11:51:27.754Z,998.95
2019-03-27T11:52:29.644Z,998.96
2019-03-27T11:53:27.641Z,998.87
2019-03-27T11:54:27.569Z,998.88
2019-03-27T11:55:27.495Z,998.97
2019-03-27T11:56:27.418Z,998.96
2019-03-27T11:57:27.355Z,998.96
2019-03-27T11:58:27.301Z,998.99
2019-03-27T11:59:27.224Z,998.93
2019-03-27T12:00:27.151Z,998.89
2019-03-27T12:01:39.303Z,998.92
2019-03-27T12:02:27.014Z,998.86
2019-03-27T12:03:26.944Z,998.88
2019-03-27T12:04:26.889Z,998.82
2019-03-27T12:05:26.818Z,998.81
2019-03-27T12:06:26.738Z,998.86
2019-03-27T12:07:26.672Z,998.84
2019-03-27T12:08:26.616Z,998.83
2019-03-27T12:09:26.548Z,998.80
2019-03-27T12:10:26.482Z,998.77
2019-03-27T12:11:26.414Z,998.75
2019-03-27T12:12:26.332Z,998.73
2019-03-27T12:13:26.261Z,998.73
2019-03-27T12:14:26.211Z,998.72
2019-03-27T12:15:26.137Z,998.77
2019-03-27T12:16:26.068Z,998.73
2019-03-27T12:17:25.996Z,998.70
2019-03-27T12:18:25.922Z,998.66
2019-03-27T12:19:25.866Z,998.70
2019-03-27T12:20:25.804Z,998.66
2019-03-27T12:21:25.731Z,998.63
2019-03-27T12:22:25.668Z,998.58
2019-03-27T12:23:25.605Z,998.62
2019-03-27T12:24:25.518Z,998.65
2019-03-27T12:25:25.527Z,998.61